WEATHER DATA

YESTERDAY
Time Temp. Dewp. Hum. Wind dir Wind speed Wind gust Bar. 1h Prec. 24h Prec.
00:01 21.7 19.1 85 270 0.8 1.9 1010.9 0.5820 0.0000
00:11 21.4 19.1 87 270 0.6 1.7 1011 0.5820 0.0000
00:21 21.1 18.9 87 185 0.3 0.6 1011 0.5820 0.0000
00:31 20.7 18.8 89 0 0.3 1011 0.0000 0.0000
00:41 20.4 18.7 90 0 0.3 1011 0.0000 0.0000
00:51 20.1 18.4 90 0 0.3 1010.8 0.0000 0.0000
01:01 19.9 18.4 91 0 0.6 1010.8 0.0000 0.0000
01:12 19.7 18.4 92 0 0.3 1010.9 0.0000 0.0000
01:22 19.5 18.3 93 0 0.3 1011.1 0.0000 0.0000
01:31 19.5 18.5 94 56 0.3 0.6 1011.2 0.0000 0.0000
01:41 19.6 18.6 94 0 0.6 1011.4 0.0000 0.0000
01:52 19.5 18.5 94 270 0.3 0.8 1011.4 0.0000 0.0000
02:02 19.5 18.5 94 270 0.3 0.8 1011.4 0.0000 0.0000
02:11 19.2 18.2 94 0 0.6 1011.5 0.0000 0.0000
02:22 18.9 17.9 94 0 0.3 1011.5 0.0000 0.0000
02:32 18.6 17.6 94 270 0.3 3.6 1011.6 0.0000 0.0000
02:42 18.4 17.6 95 0 0.6 1011.5 0.0000 0.0000
02:52 18.3 17.5 95 45 0.3 0.8 1011.3 0.0000 0.0000
03:03 18.2 17.6 96 0 0.6 1011.4 0.0000 0.0000
03:12 18.1 17.5 96 0 0.6 1011.4 0.0000 0.0000
03:22 17.9 17.3 96 0 0.6 1011.4 0.0000 0.0000
03:33 17.7 17.1 96 0 0.6 1011.5 0.0000 0.0000
03:43 17.5 16.9 96 0 0.6 1011.3 0.0000 0.0000
03:52 17.3 16.7 96 270 0.6 1.7 1011.6 0.0000 0.0000
04:02 17.3 16.7 96 0 0.3 1011.7 0.0000 0.0000
04:13 17 16.4 96 315 0.3 0.6 1011.8 0.0000 0.0000
04:23 16.9 16.3 96 270 0.8 2.2 1012 0.0000 0.0000
04:36 16.9 16.4 97 270 0.3 0.8 1012 0.0000 0.0000
04:46 16.9 16.3 96 310 0.6 1.7 1012.2 0.0000 0.0000
04:55 16.7 16.1 96 270 0.3 0.8 1012.2 0.0000 0.0000
05:05 16.6 16 96 270 0.3 1.4 1012.3 0.0000 0.0000
05:16 16.6 16 96 270 0.6 1.9 1012.5 0.0000 0.0000
05:23 16.8 16.3 97 270 0.6 1.4 1012.6 0.0000 0.0000
05:36 17.2 16.4 95 270 0.8 1.9 1012.6 0.0000 0.0000
05:46 17.2 16.1 93 270 0.8 1.9 1012.7 0.0000 0.0000
05:56 17.2 15.9 92 270 0.8 1.7 1012.8 0.0000 0.0000
06:06 17.2 15.9 92 270 0.8 2.2 1012.7 0.0000 0.0000
06:17 17.3 15.8 91 270 0.8 1.9 1012.6 0.0000 0.0000
06:27 17.4 15.9 91 270 0.8 1.7 1012.5 0.0000 0.0000
06:36 17.5 16 91 270 0.8 1.7 1012.5 0.0000 0.0000
06:46 17.8 16.1 90 270 0.8 1.7 1012.6 0.0000 0.0000
06:57 18.2 16.2 88 270 0.8 2.2 1012.4 0.0000 0.0000
07:07 18.5 16.3 87 270 0.8 2.8 1012.7 0.0000 0.0000
07:16 18.6 16 85 265 1.7 2.5 1012.7 0.0000 0.0000
07:27 18.8 15.9 83 261 1.7 3.3 1012.8 0.0000 0.0000
07:37 19 15.9 82 270 1.7 2.5 1012.7 0.0000 0.0000
07:47 19.2 15.9 81 270 1.4 2.8 1013.1 0.0000 0.0000
07:58 19.4 16.1 81 270 0.8 1.9 1013.1 0.0000 0.0000
08:09 19.8 16.4 81 270 0.8 2.2 1013.2 0.0000 0.0000
08:19 20.2 16.4 79 296 0.6 1.7 1013 0.0000 0.0000
08:29 20.6 16.6 78 283 0.8 2.2 1013 0.0000 0.0000
08:38 20.9 16.5 76 270 1.4 3.6 1012.8 0.0000 0.0000
08:49 21 16 73 265 1.7 3.3 1012.8 0.0000 0.0000
08:59 20.9 16.5 76 270 0.8 2.2 1013.1 0.0000 0.0000
09:09 21.2 16.6 75 270 0.3 1.4 1013 0.0000 0.0000
09:19 21.4 16.6 74 270 1.4 2.2 1013.2 0.0000 0.0000
09:29 22 16.7 72 270 0.6 1.7 1013.3 0.0000 0.0000
09:39 22.3 16.8 71 258 0.8 2.2 1013.4 0.0000 0.0000
09:49 22.3 16.6 70 262 1.4 2.5 1013.6 0.0000 0.0000
09:59 22.5 17.2 72 356 0.6 2.8 1013.5 0.0000 0.0000
10:09 23 16.5 67 270 0.8 2.2 1013.6 0.0000 0.0000
10:19 23 16.1 65 270 1.4 2.8 1013.6 0.0000 0.0000
10:29 23.2 16.3 65 264 1.4 2.2 1013.4 0.0000 0.0000
10:40 23.6 17.1 67 270 0.6 1.9 1013.5 0.0000 0.0000
10:59 24.2 17 64 135 0.6 1.7 1013.6 0.0000 0.0000
11:10 24.6 17.3 64 212 0.6 1.7 1013.6 0.0000 0.0000
11:20 24.9 17.1 62 270 0.6 1.9 1013.7 0.0000 0.0000
11:29 25.1 17.6 63 90 0.3 1.4 1013.6 0.0000 0.0000
11:40 25.7 17.9 62 60 0.3 0.6 1013.5 0.0000 0.0000
11:50 25.8 16.4 56 261 1.4 2.8 1013.3 0.0000 0.0000
12:00 25.7 16.3 56 261 1.4 3.9 1013.6 0.0000 0.0000
12:10 25.5 16.4 57 259 1.9 4.7 1013.8 0.0000 0.0000
12:20 25.4 17.6 62 276 1.9 3.6 1013.8 0.0000 0.0000
12:30 25 17.7 64 315 0.8 2.5 1013.9 0.0000 0.0000
12:40 24.7 17.9 66 332 0.6 2.2 1014 0.0000 0.0000
12:50 24.4 17.4 65 312 0.8 2.2 1014.1 0.0000 0.0000
13:00 24.5 18 67 333 0.6 1.9 1014 0.0000 0.0000
13:10 24.9 17.9 65 325 1.7 3.9 1013.9 0.0000 0.0000
13:20 24.8 17.8 65 326 1.7 3.9 1013.8 0.0000 0.0000
13:31 24.8 17.5 64 299 0.8 1.9 1013.7 0.0000 0.0000
13:41 24.9 18.1 66 310 0.8 3.6 1013.7 0.0000 0.0000
13:50 24.8 17.8 65 328 1.4 2.8 1013.5 0.0000 0.0000
14:01 24.6 17.6 65 326 0.8 3.3 1013.4 0.0000 0.0000
14:11 24.5 17.7 66 344 0.8 2.5 1013.1 0.0000 0.0000
14:21 24.3 17.8 67 353 0.8 2.5 1013 0.0000 0.0000
14:30 24.1 17.6 67 0 0.6 1.4 1012.7 0.0000 0.0000
14:41 23.8 17.8 69 348 0.6 1.7 1013.2 0.0000 0.0000
14:51 23.9 17.9 69 339 0.3 1.4 1013.8 0.0000 0.0000
15:01 23.8 17.5 68 270 0.8 1.9 1014.2 0.0000 0.0000
15:11 23.7 17.9 70 270 0.8 1.9 1013.9 0.0000 0.0000
15:21 23.4 17.6 70 323 0.6 1.7 1013.5 0.0000 0.0000
15:31 23 17.7 72 4 0.3 0.6 1013.1 0.0000 0.0000
15:41 22.6 17.7 74 322 0.3 0.6 1012.7 0.0000 0.0000
15:52 22.1 17.7 76 270 0.3 0.6 1013.1 0.0000 0.0000
15:59 21.8 18 79 208 0.3 0.6 1013.4 0.3490 0.3000
16:10 21 17.8 82 270 0.3 0.6 1013.4 0.3490 0.3000
16:20 20.6 17.6 83 270 0.8 2.2 1013.1 0.3490 0.3000
16:30 20.5 17.9 85 325 0.8 1.7 1013 0.3490 0.3000
16:40 20.6 18.2 86 320 1.7 3.6 1012.7 0.3490 0.3000
16:51 20.7 18.1 85 328 1.7 3.9 1012.6 0.2330 0.3000
17:02 20.7 18.1 85 310 0.3 1.7 1012.8 0.3490 0.7000
17:12 20.6 18.4 87 217 0.3 0.6 1013.1 0.3490 0.7000
17:22 20.6 18.5 88 225 0.3 0.6 1013.6 0.3490 0.7000
17:38 20.4 18.7 90 270 0.3 0.6 1013.4 1.6280 2.0000
17:49 20.4 18.7 90 270 0.8 1.7 1013.4 1.6280 2.0000
17:58 20.8 19.5 92 310 0.6 2.2 1013.1 1.6280 2.0000
18:08 21.1 19.4 90 295 0.6 2.2 1013.1 1.2790 2.0000
18:19 21.4 19.7 90 319 0.8 2.2 1013.2 1.2790 2.0000
18:29 21.5 19.4 88 313 0.8 2.5 1013.2 0.3490 2.0000
18:39 21.2 19.1 88 325 0.8 1.9 1013.2 0.0000 2.0000
18:49 21 18.9 88 335 0.8 1.9 1013.2 0.0000 2.0000
18:59 20.8 18.7 88 333 0.6 1.9 1013.2 0.0000 2.0000
19:09 20.8 18.9 89 334 0.6 1.7 1013.1 0.0000 2.0000
19:19 20.9 19.2 90 353 0.6 1.9 1013 0.0000 2.0000
19:29 21.1 19.4 90 352 0.3 1.4 1012.8 0.0000 2.0000
19:39 21.1 19.2 89 357 0.3 1.7 1012.8 0.0000 2.0000
19:48 21.1 19.2 89 357 0.6 1.7 1012.7 0.0000 2.0000
19:59 20.9 19 89 16 0.3 1.4 1012.5 0.0000 2.0000
20:10 20.8 19.1 90 2 0.3 1.7 1012.6 0.0000 2.0000
20:19 20.6 19.1 91 357 0.3 1.4 1012.5 0.0000 2.0000
20:29 20.5 19 91 354 0.3 0.8 1012.4 0.0000 2.0000
20:40 20.4 19.1 92 354 0.3 0.6 1012.4 0.0000 2.0000
20:50 20.3 19 92 351 0.3 0.8 1012.5 0.0000 2.0000
20:59 20.2 19 93 29 0.3 0.6 1012.4 0.0000 2.0000
21:20 20.1 18.9 93 0 0.3 0.6 1012.4 0.0000 2.0000
21:30 19.9 18.7 93 0 0.3 1012.4 0.0000 2.0000
21:40 19.7 18.7 94 0 0.6 1012.2 0.0000 2.0000
21:50 19.5 18.5 94 350 0.3 0.6 1012.2 0.0000 2.0000
22:00 19.3 18.3 94 0 0.3 1012.1 0.0000 2.0000
22:10 19.1 18.3 95 0 0.6 1011.9 0.0000 2.0000
22:20 18.9 18.1 95 0 0.6 1011.9 0.0000 2.0000
22:30 18.7 17.9 95 15 0.3 0.8 1011.9 0.0000 2.0000
22:40 18.5 17.7 95 60 0.3 0.8 1012 0.0000 2.0000
22:50 18.2 17.4 95 59 0.3 0.8 1011.7 0.0000 2.0000
23:01 18 17.4 96 39 0.3 0.8 1011.9 0.0000 2.0000
23:10 17.9 17.3 96 0 0.6 1011.8 0.0000 2.0000
23:20 17.8 17.2 96 18 0.3 0.6 1011.8 0.0000 2.0000
23:30 17.7 17.1 96 0 0.6 1012 0.0000 2.0000
23:41 17.7 17.2 97 15 0.3 0.6 1011.8 0.0000 2.0000
23:51 17.6 17.1 97 14 0.3 0.6 1011.7 0.0000

DAY STATISTIC

2021-06-21
TEMPERATURE
AVERAGE
20.6
HIGH
25.8
11:50
LOW
16.6
05:05
PRESSURE
AVERAGE
1012.6
HIGH
1014.2
15:01
LOW
1010.8
00:51
DEWPOINT
AVERAGE
17.6
HIGH
19.7
18:19
LOW
15.8
06:17
HUMIDITY
AVERAGE
84
HIGH
97
04:36
LOW
56
11:50
WIND SPEED
AVERAGE
0.6
HIGH
1.9
12:10
WIND GUST
AVERAGE
1.6
HIGH
4.7
12:10
WIND DIRECTION
PREVAILING
W
37.9%
N
16.4
NE
5.0
E
0.7
SE
0.7
S
0.7
SW
2.9
W
37.9
NW
19.3
PRECIPITATION
RAIN HOUR
1.6
RAIN DAY
2.0
TEMPERATURE (°C)
LOW
16.6
HIGH
25.8
AVERAGE
20.6
PRESSURE (hpa)
LOW
1010.8
HIGH
1014.2
AVERAGE
1012.6
DEVICE